createdAt,value
2023-05-12T00:01:45.205Z,13.70
2023-05-12T00:04:12.909Z,13.60
2023-05-12T00:06:39.963Z,13.60
2023-05-12T00:09:06.962Z,13.60
2023-05-12T00:11:34.770Z,13.60
2023-05-12T00:14:01.862Z,13.60
2023-05-12T00:16:29.013Z,13.60
2023-05-12T00:18:56.104Z,13.60
2023-05-12T00:21:23.243Z,13.60
2023-05-12T00:23:50.280Z,13.60
2023-05-12T00:26:17.884Z,13.60
2023-05-12T00:28:45.681Z,13.60
2023-05-12T00:31:12.811Z,13.60
2023-05-12T00:33:39.902Z,13.60
2023-05-12T00:36:07.665Z,13.70
2023-05-12T00:38:34.823Z,13.60
2023-05-12T00:41:02.125Z,13.60
2023-05-12T00:43:29.300Z,13.60
2023-05-12T00:45:57.341Z,13.60
2023-05-12T00:48:25.115Z,13.60
2023-05-12T00:50:52.657Z,13.50
2023-05-12T00:53:19.669Z,13.50
2023-05-12T00:55:46.786Z,13.50
2023-05-12T00:58:13.930Z,13.50
2023-05-12T01:00:41.067Z,13.50
2023-05-12T01:03:08.598Z,13.50
2023-05-12T01:05:48.309Z,13.50
2023-05-12T01:08:17.118Z,13.60
2023-05-12T01:10:44.849Z,13.50
2023-05-12T01:13:12.047Z,13.50
2023-05-12T01:15:43.512Z,13.50
2023-05-12T01:18:12.925Z,13.50
2023-05-12T01:20:41.296Z,13.50
2023-05-12T01:23:09.117Z,13.50
2023-05-12T01:25:38.945Z,13.50
2023-05-12T01:28:06.810Z,13.40
2023-05-12T01:30:34.726Z,13.40
2023-05-12T01:33:02.374Z,13.40
2023-05-12T01:35:29.409Z,13.40
2023-05-12T01:37:56.404Z,13.40
2023-05-12T01:40:23.536Z,13.40
2023-05-12T01:42:50.634Z,13.40
2023-05-12T01:45:17.856Z,13.40
2023-05-12T01:47:44.925Z,13.40
2023-05-12T01:50:12.013Z,13.40
2023-05-12T01:52:39.056Z,13.40
2023-05-12T01:55:07.335Z,13.40
2023-05-12T01:57:34.354Z,13.30
2023-05-12T02:00:01.373Z,13.30
2023-05-12T02:02:28.558Z,13.30
2023-05-12T02:04:56.011Z,13.20
2023-05-12T02:07:23.081Z,13.20
2023-05-12T02:09:50.108Z,13.30
2023-05-12T02:12:17.183Z,13.20
2023-05-12T02:14:44.195Z,13.20
2023-05-12T02:17:11.156Z,13.20
2023-05-12T02:19:38.165Z,13.20
2023-05-12T02:22:05.243Z,13.20
2023-05-12T02:24:33.776Z,13.20
2023-05-12T02:27:00.919Z,13.10
2023-05-12T02:29:27.899Z,13.10
2023-05-12T02:31:54.995Z,13.10
2023-05-12T02:34:22.121Z,13.10
2023-05-12T02:36:49.146Z,13.10
2023-05-12T02:39:16.214Z,13.10
2023-05-12T02:41:43.209Z,13.10
2023-05-12T02:44:10.290Z,13.10
2023-05-12T02:46:37.513Z,13.10
2023-05-12T02:49:04.681Z,13.00
2023-05-12T02:51:32.460Z,13.00
2023-05-12T02:53:59.430Z,13.00
2023-05-12T02:56:26.535Z,13.00
2023-05-12T02:58:53.748Z,13.00
2023-05-12T03:01:21.568Z,12.90
2023-05-12T03:03:48.766Z,12.90
2023-05-12T03:06:16.178Z,12.90
2023-05-12T03:08:43.164Z,12.90
2023-05-12T03:11:10.257Z,12.90
2023-05-12T03:13:41.319Z,12.90
2023-05-12T03:16:08.374Z,12.90
2023-05-12T03:18:35.420Z,12.90
2023-05-12T03:21:02.473Z,12.90
2023-05-12T03:23:29.472Z,12.80
2023-05-12T03:25:56.641Z,12.80
2023-05-12T03:28:24.896Z,12.80
2023-05-12T03:30:51.924Z,12.80
2023-05-12T03:33:18.882Z,12.80
2023-05-12T03:35:45.970Z,12.80
2023-05-12T03:38:13.095Z,12.80
2023-05-12T03:40:40.157Z,12.80
2023-05-12T03:43:07.154Z,12.80
2023-05-12T03:45:38.036Z,12.80
2023-05-12T03:48:05.351Z,12.80
2023-05-12T03:50:32.402Z,12.80
2023-05-12T03:52:59.378Z,12.80
2023-05-12T03:55:29.320Z,12.80
2023-05-12T03:57:56.826Z,12.80
2023-05-12T04:00:23.872Z,12.80
2023-05-12T04:02:51.261Z,12.80
2023-05-12T04:05:18.379Z,12.80
2023-05-12T04:07:45.384Z,12.70
2023-05-12T04:10:12.448Z,12.70
2023-05-12T04:12:39.543Z,12.70
2023-05-12T04:15:07.518Z,12.70
2023-05-12T04:17:34.976Z,12.70
2023-05-12T04:20:02.190Z,12.80
2023-05-12T04:22:29.198Z,12.70
2023-05-12T04:24:56.260Z,12.70
2023-05-12T04:27:23.280Z,12.80
2023-05-12T04:29:50.247Z,12.80
2023-05-12T04:32:17.418Z,12.80
2023-05-12T04:34:44.548Z,12.80
2023-05-12T04:37:11.596Z,12.80
2023-05-12T04:39:38.630Z,12.80
2023-05-12T04:42:06.093Z,12.80
2023-05-12T04:44:33.155Z,12.80
2023-05-12T04:47:00.234Z,12.80
2023-05-12T04:49:27.298Z,12.80
2023-05-12T04:51:54.376Z,12.80
2023-05-12T04:54:21.524Z,12.80
2023-05-12T04:56:48.546Z,12.80
2023-05-12T04:59:18.443Z,12.80
2023-05-12T05:01:45.675Z,12.90
2023-05-12T05:04:12.911Z,12.80
2023-05-12T05:06:39.918Z,12.80
2023-05-12T05:09:07.362Z,12.80
2023-05-12T05:11:34.511Z,12.80
2023-05-12T05:14:01.555Z,12.70
2023-05-12T05:16:29.003Z,12.70
2023-05-12T05:18:58.295Z,12.70
2023-05-12T05:21:25.542Z,12.70
2023-05-12T05:23:53.422Z,12.70
2023-05-12T05:26:21.982Z,12.80
2023-05-12T05:28:49.201Z,12.80
2023-05-12T05:31:17.443Z,12.80
2023-05-12T05:33:45.659Z,12.80
2023-05-12T05:36:13.605Z,12.80
2023-05-12T05:38:40.958Z,12.90
2023-05-12T05:41:08.220Z,12.90
2023-05-12T05:43:35.754Z,13.00
2023-05-12T05:46:05.078Z,13.10
2023-05-12T05:48:33.121Z,13.20
2023-05-12T05:51:01.922Z,13.30
2023-05-12T05:53:29.471Z,13.30
2023-05-12T05:55:57.049Z,13.40
2023-05-12T05:58:24.414Z,13.50
2023-05-12T06:00:52.914Z,13.50
2023-05-12T06:03:20.152Z,13.60
2023-05-12T06:05:48.515Z,13.70
2023-05-12T06:08:15.737Z,13.70
2023-05-12T06:10:43.431Z,13.70
2023-05-12T06:13:11.523Z,13.70
2023-05-12T06:15:39.362Z,13.70
2023-05-12T06:18:06.931Z,13.80
2023-05-12T06:20:34.248Z,13.80
2023-05-12T06:23:02.076Z,13.90
2023-05-12T06:25:29.242Z,14.00
2023-05-12T06:27:56.334Z,14.00
2023-05-12T06:30:24.969Z,14.00
2023-05-12T06:32:52.062Z,14.00
2023-05-12T06:35:19.684Z,14.10
2023-05-12T06:37:51.108Z,14.10
2023-05-12T06:40:18.401Z,14.10
2023-05-12T06:42:46.240Z,14.20
2023-05-12T06:45:14.703Z,14.30
2023-05-12T06:47:42.376Z,14.40
2023-05-12T06:50:09.827Z,14.60
2023-05-12T06:52:37.800Z,14.60
2023-05-12T06:55:06.730Z,14.70
2023-05-12T06:57:33.936Z,14.80
2023-05-12T07:00:03.295Z,14.90
2023-05-12T07:02:31.088Z,14.90
2023-05-12T07:04:58.750Z,15.00
2023-05-12T07:07:25.823Z,15.10
2023-05-12T07:09:53.296Z,15.10
2023-05-12T07:12:21.117Z,15.10
2023-05-12T07:14:49.664Z,15.10
2023-05-12T07:17:18.059Z,15.20
2023-05-12T07:19:50.812Z,15.20
2023-05-12T07:22:18.086Z,15.30
2023-05-12T07:24:45.971Z,15.30
2023-05-12T07:27:14.221Z,15.40
2023-05-12T07:29:42.034Z,15.40
2023-05-12T07:32:09.696Z,15.40
2023-05-12T07:34:37.891Z,15.50
2023-05-12T07:37:07.120Z,15.50
2023-05-12T07:39:34.365Z,15.50
2023-05-12T07:42:01.392Z,15.40
2023-05-12T07:44:28.540Z,15.50
2023-05-12T07:46:55.780Z,15.50
2023-05-12T07:49:23.504Z,15.60
2023-05-12T07:51:50.612Z,15.60
2023-05-12T07:54:17.660Z,15.60
2023-05-12T07:56:44.747Z,15.70
2023-05-12T07:59:13.356Z,15.80
2023-05-12T08:01:40.869Z,15.90
2023-05-12T08:04:08.132Z,15.90
2023-05-12T08:06:35.280Z,15.90
2023-05-12T08:09:02.473Z,15.90
2023-05-12T08:11:29.622Z,15.90
2023-05-12T08:13:56.738Z,15.90
2023-05-12T08:16:23.900Z,15.90
2023-05-12T08:18:51.000Z,15.90
2023-05-12T08:21:18.103Z,15.80
2023-05-12T08:23:45.169Z,15.80
2023-05-12T08:26:12.274Z,15.70
2023-05-12T08:28:39.414Z,15.70
2023-05-12T08:31:07.153Z,15.70
2023-05-12T08:33:37.471Z,15.80
2023-05-12T08:36:04.860Z,15.80
2023-05-12T08:38:32.876Z,15.80
2023-05-12T08:41:17.049Z,15.80
2023-05-12T08:43:50.159Z,15.90
2023-05-12T08:46:17.939Z,15.80
2023-05-12T08:48:50.496Z,15.80
2023-05-12T08:51:19.540Z,15.80
2023-05-12T08:53:49.332Z,15.80
2023-05-12T08:58:50.094Z,15.80
2023-05-12T09:01:18.398Z,15.80
2023-05-12T09:03:45.949Z,15.80
2023-05-12T09:06:14.593Z,15.70
2023-05-12T09:08:42.123Z,15.70
2023-05-12T09:11:12.699Z,15.80
2023-05-12T09:13:55.546Z,15.90
2023-05-12T09:16:29.004Z,16.00
2023-05-12T09:18:58.348Z,16.10
2023-05-12T09:21:26.834Z,16.10
2023-05-12T09:23:59.099Z,16.00
2023-05-12T09:26:27.984Z,16.00
2023-05-12T09:29:04.583Z,16.00
2023-05-12T09:31:33.903Z,15.80
2023-05-12T09:34:03.093Z,15.70
2023-05-12T09:36:31.045Z,15.70
2023-05-12T09:39:09.254Z,15.50
2023-05-12T09:41:40.999Z,15.50
2023-05-12T09:44:10.187Z,15.50
2023-05-12T09:46:40.032Z,15.70
2023-05-12T09:49:08.416Z,15.90
2023-05-12T09:51:35.332Z,16.00
2023-05-12T09:54:02.538Z,16.00
2023-05-12T09:56:31.652Z,15.90
2023-05-12T09:58:59.076Z,16.00
2023-05-12T10:01:28.173Z,16.10
2023-05-12T10:03:57.507Z,16.20
2023-05-12T10:06:30.794Z,16.20
2023-05-12T10:09:11.200Z,16.30
2023-05-12T10:11:38.814Z,16.30
2023-05-12T10:14:08.593Z,16.20
2023-05-12T10:16:36.533Z,16.10
2023-05-12T10:19:04.748Z,16.00
2023-05-12T10:21:32.889Z,16.10
2023-05-12T10:24:00.776Z,16.20
2023-05-12T10:26:28.160Z,16.20
2023-05-12T10:28:55.903Z,16.20
2023-05-12T10:31:24.590Z,16.30
2023-05-12T10:34:02.876Z,16.30
2023-05-12T10:36:30.069Z,16.30
2023-05-12T10:39:06.002Z,16.20
2023-05-12T10:41:35.138Z,16.20
2023-05-12T10:44:02.198Z,16.30
2023-05-12T10:46:30.697Z,16.30
2023-05-12T10:49:04.314Z,16.40
2023-05-12T10:51:47.807Z,16.50
2023-05-12T10:54:25.124Z,16.40
2023-05-12T10:56:53.747Z,16.30
2023-05-12T10:59:24.432Z,16.30
2023-05-12T11:02:05.311Z,16.20
2023-05-12T11:04:48.427Z,16.20
2023-05-12T11:07:18.729Z,16.20
2023-05-12T11:09:57.769Z,16.10
2023-05-12T11:12:36.419Z,16.10
2023-05-12T11:15:05.789Z,16.00
2023-05-12T11:17:33.092Z,16.00
2023-05-12T11:20:01.894Z,16.00
2023-05-12T11:22:29.310Z,16.00
2023-05-12T11:24:56.370Z,16.00
2023-05-12T11:27:24.186Z,16.00
2023-05-12T11:30:02.967Z,16.00
2023-05-12T11:32:30.588Z,16.10
2023-05-12T11:35:13.544Z,16.00
2023-05-12T11:37:42.217Z,15.90
2023-05-12T11:40:15.326Z,15.80
2023-05-12T11:42:46.341Z,15.80
2023-05-12T11:45:28.785Z,15.80
2023-05-12T11:48:12.981Z,15.80
2023-05-12T11:50:42.419Z,15.70
2023-05-12T11:53:18.997Z,15.80
2023-05-12T11:55:54.284Z,15.90
2023-05-12T11:58:30.027Z,15.90
2023-05-12T12:01:08.705Z,15.80
2023-05-12T12:03:48.751Z,15.80
2023-05-12T12:06:16.635Z,15.80
2023-05-12T12:09:10.306Z,15.80
2023-05-12T12:11:37.283Z,15.80
2023-05-12T12:14:05.064Z,15.80
2023-05-12T12:16:32.498Z,15.70
2023-05-12T12:18:59.694Z,15.70
2023-05-12T12:21:26.770Z,15.60
2023-05-12T12:23:53.790Z,15.60
2023-05-12T12:26:21.741Z,15.50
2023-05-12T12:28:49.282Z,15.60
2023-05-12T12:31:17.417Z,15.60
2023-05-12T12:33:44.484Z,15.60
2023-05-12T12:36:11.586Z,15.60
2023-05-12T12:38:38.665Z,15.60
2023-05-12T12:41:07.313Z,15.60
2023-05-12T12:43:34.308Z,15.60
2023-05-12T12:46:01.390Z,15.60
2023-05-12T12:48:29.068Z,15.60
2023-05-12T12:50:56.483Z,15.50
2023-05-12T12:53:23.727Z,15.50
2023-05-12T12:55:51.287Z,15.50
2023-05-12T12:58:18.438Z,15.40
2023-05-12T13:00:45.624Z,15.50
2023-05-12T13:03:12.897Z,15.50
2023-05-12T13:05:40.129Z,15.50
2023-05-12T13:08:07.503Z,15.40
2023-05-12T13:10:35.533Z,15.50
2023-05-12T13:13:02.590Z,15.50
2023-05-12T13:15:32.356Z,15.50
2023-05-12T13:17:59.680Z,15.50
2023-05-12T13:20:27.022Z,15.50
2023-05-12T13:22:54.141Z,15.50
2023-05-12T13:25:21.995Z,15.70
2023-05-12T13:27:49.546Z,15.70
2023-05-12T13:30:16.564Z,15.70
2023-05-12T13:32:43.774Z,15.80
2023-05-12T13:35:10.911Z,15.80
2023-05-12T13:37:38.424Z,15.90
2023-05-12T13:40:05.907Z,15.90
2023-05-12T13:42:32.966Z,15.80
2023-05-12T13:45:00.073Z,15.70
2023-05-12T13:47:28.048Z,15.60
2023-05-12T13:49:56.844Z,15.60
2023-05-12T13:52:23.933Z,15.50
2023-05-12T13:54:51.530Z,15.50
2023-05-12T13:57:18.665Z,15.40
2023-05-12T13:59:45.781Z,15.40
2023-05-12T14:02:14.060Z,15.40
2023-05-12T14:04:41.174Z,15.20
2023-05-12T14:07:23.154Z,15.10
2023-05-12T14:09:59.323Z,15.10
2023-05-12T14:12:31.981Z,15.00
2023-05-12T14:15:21.993Z,14.90
2023-05-12T14:18:01.408Z,14.80
2023-05-12T14:20:38.512Z,14.80
2023-05-12T14:23:16.960Z,14.80
2023-05-12T14:25:55.685Z,14.80
2023-05-12T14:28:31.055Z,14.70
2023-05-12T14:31:12.628Z,14.70
2023-05-12T14:33:45.888Z,14.70
2023-05-12T14:36:13.205Z,14.70
2023-05-12T14:38:40.309Z,14.70
2023-05-12T14:41:08.601Z,14.70
2023-05-12T14:43:35.735Z,14.70
2023-05-12T14:46:02.976Z,14.70
2023-05-12T14:48:30.088Z,14.60
2023-05-12T14:50:57.457Z,14.50
2023-05-12T14:53:25.039Z,14.50
2023-05-12T14:55:52.470Z,14.60
2023-05-12T14:58:21.793Z,14.50
2023-05-12T15:00:50.881Z,14.50
2023-05-12T15:03:21.153Z,14.50
2023-05-12T15:08:21.910Z,14.50
2023-05-12T15:10:49.286Z,14.40
2023-05-12T15:13:18.438Z,14.40
2023-05-12T15:15:45.847Z,14.40
2023-05-12T15:18:13.052Z,14.50
2023-05-12T15:20:40.212Z,14.40
2023-05-12T15:23:07.816Z,14.40
2023-05-12T15:25:37.928Z,14.30
2023-05-12T15:28:05.248Z,14.30
2023-05-12T15:30:32.728Z,14.20
2023-05-12T15:33:01.086Z,14.20
2023-05-12T15:35:28.152Z,14.20
2023-05-12T15:37:55.794Z,14.20
2023-05-12T15:40:22.950Z,14.20
2023-05-12T15:42:50.010Z,14.30
2023-05-12T15:45:17.361Z,14.30
2023-05-12T15:47:44.442Z,14.20
2023-05-12T15:50:11.768Z,14.30
2023-05-12T15:52:38.877Z,14.30
2023-05-12T15:55:06.205Z,14.30
2023-05-12T15:57:33.326Z,14.30
2023-05-12T16:00:00.505Z,14.20
2023-05-12T16:02:27.981Z,14.20
2023-05-12T16:04:55.142Z,14.20
2023-05-12T16:07:22.334Z,14.30
2023-05-12T16:09:49.428Z,14.30
2023-05-12T16:12:16.527Z,14.30
2023-05-12T16:14:43.510Z,14.30
2023-05-12T16:17:10.869Z,14.20
2023-05-12T16:19:38.284Z,14.10
2023-05-12T16:22:05.974Z,14.10
2023-05-12T16:24:33.254Z,14.10
2023-05-12T16:27:01.244Z,14.10
2023-05-12T16:29:31.555Z,14.10
2023-05-12T16:31:59.092Z,14.00
2023-05-12T16:34:26.249Z,14.00
2023-05-12T16:36:53.626Z,14.00
2023-05-12T16:39:20.693Z,13.90
2023-05-12T16:41:47.796Z,13.90
2023-05-12T16:44:14.830Z,13.80
2023-05-12T16:46:43.295Z,13.70
2023-05-12T16:49:10.629Z,13.70
2023-05-12T16:51:38.975Z,13.70
2023-05-12T16:54:06.408Z,13.60
2023-05-12T16:56:33.446Z,13.60
2023-05-12T16:59:01.657Z,13.60
2023-05-12T17:01:33.179Z,13.60
2023-05-12T17:04:00.386Z,13.60
2023-05-12T17:06:27.941Z,13.50
2023-05-12T17:08:54.982Z,13.50
2023-05-12T17:11:22.376Z,13.50
2023-05-12T17:13:49.477Z,13.50
2023-05-12T17:16:16.871Z,13.50
2023-05-12T17:21:14.052Z,13.50
2023-05-12T17:23:41.702Z,13.50
2023-05-12T17:26:08.702Z,13.40
2023-05-12T17:28:35.713Z,13.30
2023-05-12T17:31:02.932Z,13.30
2023-05-12T17:33:30.090Z,13.30
2023-05-12T17:36:10.917Z,13.30
2023-05-12T17:38:40.284Z,13.30
2023-05-12T17:41:07.301Z,13.20
2023-05-12T17:43:34.339Z,13.20
2023-05-12T17:46:01.427Z,13.20
2023-05-12T17:48:31.295Z,13.20
2023-05-12T17:50:58.568Z,13.10
2023-05-12T17:53:26.338Z,13.10
2023-05-12T17:55:54.541Z,13.10
2023-05-12T17:58:21.715Z,13.10
2023-05-12T18:00:49.025Z,13.10
2023-05-12T18:03:17.818Z,13.10
2023-05-12T18:05:44.982Z,13.10
2023-05-12T18:08:12.052Z,13.10
2023-05-12T18:10:41.539Z,13.10
2023-05-12T18:13:08.668Z,13.10
2023-05-12T18:15:36.284Z,13.10
2023-05-12T18:18:03.456Z,13.10
2023-05-12T18:20:30.596Z,13.10
2023-05-12T18:22:57.818Z,13.10
2023-05-12T18:25:24.995Z,13.10
2023-05-12T18:27:52.859Z,13.00
2023-05-12T18:30:19.962Z,13.00
2023-05-12T18:32:47.188Z,13.00
2023-05-12T18:35:14.240Z,13.00
2023-05-12T18:37:41.210Z,13.00
2023-05-12T18:40:08.822Z,13.00
2023-05-12T18:42:36.185Z,13.00
2023-05-12T18:45:03.485Z,13.00
2023-05-12T18:47:30.517Z,13.00
2023-05-12T18:49:57.593Z,13.00
2023-05-12T18:52:24.957Z,13.00
2023-05-12T18:54:52.031Z,12.90
2023-05-12T18:57:19.134Z,12.90
2023-05-12T18:59:46.304Z,12.90
2023-05-12T19:02:13.397Z,12.90
2023-05-12T19:04:40.531Z,12.90
2023-05-12T19:07:10.120Z,12.90
2023-05-12T19:09:37.762Z,12.90
2023-05-12T19:12:06.124Z,12.90
2023-05-12T19:14:33.421Z,12.80
2023-05-12T19:17:00.509Z,12.80
2023-05-12T19:19:27.634Z,12.80
2023-05-12T19:21:54.622Z,12.70
2023-05-12T19:24:25.853Z,12.70
2023-05-12T19:26:53.073Z,12.80
2023-05-12T19:29:20.189Z,12.80
2023-05-12T19:31:47.302Z,12.70
2023-05-12T19:34:14.453Z,12.70
2023-05-12T19:36:41.669Z,12.70
2023-05-12T19:39:08.723Z,12.70
2023-05-12T19:41:35.773Z,12.70
2023-05-12T19:44:02.822Z,12.70
2023-05-12T19:46:29.975Z,12.70
2023-05-12T19:48:57.037Z,12.70
2023-05-12T19:51:24.164Z,12.70
2023-05-12T19:53:51.296Z,12.70
2023-05-12T19:56:19.175Z,12.70
2023-05-12T19:58:46.218Z,12.70
2023-05-12T20:01:13.304Z,12.70
2023-05-12T20:03:40.480Z,12.70
2023-05-12T20:06:07.564Z,12.70
2023-05-12T20:08:34.543Z,12.70
2023-05-12T20:11:01.608Z,12.70
2023-05-12T20:13:28.568Z,12.70
2023-05-12T20:15:55.771Z,12.70
2023-05-12T20:18:23.930Z,12.70
2023-05-12T20:20:51.196Z,12.60
2023-05-12T20:23:18.280Z,12.60
2023-05-12T20:25:45.337Z,12.60
2023-05-12T20:28:12.512Z,12.60
2023-05-12T20:30:39.544Z,12.60
2023-05-12T20:33:06.746Z,12.60
2023-05-12T20:35:33.833Z,12.60
2023-05-12T20:38:01.214Z,12.50
2023-05-12T20:40:28.290Z,12.50
2023-05-12T20:42:55.654Z,12.50
2023-05-12T20:45:22.888Z,12.50
2023-05-12T20:47:50.800Z,12.50
2023-05-12T20:50:18.044Z,12.50
2023-05-12T20:52:47.439Z,12.50
2023-05-12T20:55:14.504Z,12.50
2023-05-12T20:57:41.789Z,12.50
2023-05-12T21:00:14.038Z,12.50
2023-05-12T21:02:41.242Z,12.50
2023-05-12T21:05:08.670Z,12.50
2023-05-12T21:07:35.911Z,12.50
2023-05-12T21:10:03.959Z,12.50
2023-05-12T21:12:31.658Z,12.50
2023-05-12T21:14:58.788Z,12.50
2023-05-12T21:17:25.888Z,12.50
2023-05-12T21:19:52.889Z,12.40
2023-05-12T21:22:19.914Z,12.50
2023-05-12T21:24:46.890Z,12.50
2023-05-12T21:27:13.881Z,12.50
2023-05-12T21:29:41.061Z,12.40
2023-05-12T21:32:08.608Z,12.40
2023-05-12T21:34:36.213Z,12.40
2023-05-12T21:37:03.349Z,12.40
2023-05-12T21:39:30.455Z,12.30
2023-05-12T21:41:57.463Z,12.30
2023-05-12T21:44:24.460Z,12.30
2023-05-12T21:46:51.546Z,12.30
2023-05-12T21:49:18.570Z,12.20
2023-05-12T21:51:45.657Z,12.20
2023-05-12T21:54:12.806Z,12.20
2023-05-12T21:56:39.869Z,12.20
2023-05-12T21:59:06.997Z,12.10
2023-05-12T22:01:34.053Z,12.10
2023-05-12T22:04:01.262Z,12.10
2023-05-12T22:06:28.392Z,12.10
2023-05-12T22:08:55.906Z,12.10
2023-05-12T22:11:23.709Z,12.10
2023-05-12T22:13:51.237Z,12.10
2023-05-12T22:16:21.590Z,12.10
2023-05-12T22:18:51.037Z,12.20
2023-05-12T22:21:18.083Z,12.20
2023-05-12T22:23:45.083Z,12.20
2023-05-12T22:26:12.085Z,12.10
2023-05-12T22:28:39.200Z,12.10
2023-05-12T22:31:06.346Z,12.20
2023-05-12T22:33:34.703Z,12.10
2023-05-12T22:36:01.835Z,12.20
2023-05-12T22:38:28.838Z,12.20
2023-05-12T22:40:56.023Z,12.10
2023-05-12T22:43:23.148Z,12.10
2023-05-12T22:45:56.073Z,12.10
2023-05-12T22:48:23.522Z,12.10
2023-05-12T22:50:54.461Z,12.10
2023-05-12T22:53:21.523Z,12.10
2023-05-12T22:55:48.500Z,12.10
2023-05-12T22:58:15.944Z,12.00
2023-05-12T23:00:42.912Z,12.00
2023-05-12T23:03:09.986Z,12.00
2023-05-12T23:05:37.079Z,12.00
2023-05-12T23:08:04.150Z,12.00
2023-05-12T23:10:31.197Z,12.00
2023-05-12T23:12:58.210Z,12.00
2023-05-12T23:15:25.417Z,12.00
2023-05-12T23:17:53.159Z,12.00
2023-05-12T23:20:20.324Z,11.90
2023-05-12T23:22:47.597Z,11.90
2023-05-12T23:25:14.705Z,11.90
2023-05-12T23:27:41.710Z,11.90
2023-05-12T23:30:09.120Z,11.80
2023-05-12T23:32:36.386Z,11.80
2023-05-12T23:35:04.228Z,11.80
2023-05-12T23:37:31.319Z,11.80
2023-05-12T23:39:58.488Z,11.80
2023-05-12T23:42:25.437Z,11.80
2023-05-12T23:44:52.522Z,11.80
2023-05-12T23:47:19.753Z,11.80
2023-05-12T23:49:46.739Z,11.80
2023-05-12T23:52:13.722Z,11.80
2023-05-12T23:54:40.708Z,11.80
2023-05-12T23:57:07.726Z,11.80
2023-05-12T23:59:34.827Z,11.80
